Airfield :
LOGIN :

Register | Disclaimer

   EN    FR    IT 

 










Legend :    VFR   Marginal VFR   IFR   Intensive IFR   Very Intensive IFR
Visi :
Ceiling :
>= 8 km
>= 3000ft
5 to 8 km
1000 to 3000 ft
1500m to 5 km
500 to 1000 ft
800 to 1500m
200 to 500 ft
< 800m
< 200 ft
Symbols :   Thunderstorms  Fog  Heavy snow  Heavy precipitations  Wind > 20 kt
SIGMETs :     Misc.  Thunderstorms  Icing  Turbulence  Mountain Waves  Volcanic Ashes






- Airport Elevation : 1585 ft
- IATA code : SIR


LSGS - Sion

CURRENT METAR :
  • 122350Z AUTO 07003KT 030V140 9999 SCT070 00/M03 Q1004

EXPIRED METARs :
  • 122320Z AUTO VRB01KT CAVOK 00/M03 Q1004
  • 122250Z AUTO VRB02KT CAVOK 00/M02 Q1004
  • 122220Z AUTO VRB01KT CAVOK 00/M02 Q1003
  • 122150Z AUTO VRB01KT CAVOK 00/M03 Q1003
  • 122120Z AUTO 00000KT CAVOK 01/M01 Q1003
  • 122050Z AUTO VRB02KT CAVOK 01/M02 Q1004

Expired Forecast.



MET'MAP, your aeronautical weather chart ! - Copyright ORBIFLY December 2007 - Disclaimer

ORBIFLY MET'MAP TEAM :

Programming & Development : Alexandra Zaïnal
Concept & Development : Baudouin d'Aumeries
Co-Development & Prog : Marc-Olivier Méhu
Technical & hardware support : Manuel Goepfert

Contact : metmap@orbifly.com




SOURCES & CREDITS :

   NOAA